sensor_id;sensor_type;location;lat;lon;timestamp;P1;durP1;ratioP1;P2;durP2;ratioP2
10596;SDS011;5346;48.766;8.674;2023-02-28T00:00:44;3.10;;;2.57;;
10596;SDS011;5346;48.766;8.674;2023-02-28T00:03:17;4.53;;;3.23;;
10596;SDS011;5346;48.766;8.674;2023-02-28T00:05:44;3.43;;;2.20;;
10596;SDS011;5346;48.766;8.674;2023-02-28T00:08:17;3.77;;;2.60;;
10596;SDS011;5346;48.766;8.674;2023-02-28T00:10:50;3.83;;;2.57;;
10596;SDS011;5346;48.766;8.674;2023-02-28T00:13:17;3.67;;;2.37;;
10596;SDS011;5346;48.766;8.674;2023-02-28T00:15:58;4.40;;;2.60;;
10596;SDS011;5346;48.766;8.674;2023-02-28T00:18:30;3.43;;;2.40;;
10596;SDS011;5346;48.766;8.674;2023-02-28T00:21:05;5.13;;;2.83;;
10596;SDS011;5346;48.766;8.674;2023-02-28T00:23:38;4.83;;;2.63;;
10596;SDS011;5346;48.766;8.674;2023-02-28T00:26:12;3.13;;;2.40;;
10596;SDS011;5346;48.766;8.674;2023-02-28T00:28:47;6.00;;;2.20;;
10596;SDS011;5346;48.766;8.674;2023-02-28T00:31:21;3.33;;;2.50;;
10596;SDS011;5346;48.766;8.674;2023-02-28T00:33:56;4.73;;;2.37;;
10596;SDS011;5346;48.766;8.674;2023-02-28T00:36:31;3.30;;;2.50;;
10596;SDS011;5346;48.766;8.674;2023-02-28T00:38:58;5.53;;;2.50;;
10596;SDS011;5346;48.766;8.674;2023-02-28T00:41:31;3.57;;;2.63;;
10596;SDS011;5346;48.766;8.674;2023-02-28T00:44:04;3.93;;;2.63;;
10596;SDS011;5346;48.766;8.674;2023-02-28T00:46:51;3.87;;;2.50;;
10596;SDS011;5346;48.766;8.674;2023-02-28T00:49:26;3.00;;;2.57;;
10596;SDS011;5346;48.766;8.674;2023-02-28T00:51:54;2.97;;;2.50;;
10596;SDS011;5346;48.766;8.674;2023-02-28T00:54:28;7.17;;;2.93;;
10596;SDS011;5346;48.766;8.674;2023-02-28T00:56:55;3.40;;;2.63;;
10596;SDS011;5346;48.766;8.674;2023-02-28T00:59:29;5.23;;;2.90;;
10596;SDS011;5346;48.766;8.674;2023-02-28T01:01:58;3.30;;;2.70;;
10596;SDS011;5346;48.766;8.674;2023-02-28T01:04:31;6.13;;;2.47;;
10596;SDS011;5346;48.766;8.674;2023-02-28T01:06:59;6.27;;;2.90;;
10596;SDS011;5346;48.766;8.674;2023-02-28T01:09:32;6.63;;;3.30;;
10596;SDS011;5346;48.766;8.674;2023-02-28T01:12:01;5.93;;;3.33;;
10596;SDS011;5346;48.766;8.674;2023-02-28T01:14:35;5.27;;;2.90;;
10596;SDS011;5346;48.766;8.674;2023-02-28T01:17:02;4.10;;;3.17;;
10596;SDS011;5346;48.766;8.674;2023-02-28T01:19:36;6.23;;;3.27;;
10596;SDS011;5346;48.766;8.674;2023-02-28T01:22:04;5.53;;;3.10;;
10596;SDS011;5346;48.766;8.674;2023-02-28T01:24:40;6.97;;;3.50;;
10596;SDS011;5346;48.766;8.674;2023-02-28T01:27:14;7.83;;;3.33;;
10596;SDS011;5346;48.766;8.674;2023-02-28T01:29:50;3.70;;;3.03;;
10596;SDS011;5346;48.766;8.674;2023-02-28T01:32:17;4.23;;;3.37;;
10596;SDS011;5346;48.766;8.674;2023-02-28T01:34:50;8.23;;;3.60;;
10596;SDS011;5346;48.766;8.674;2023-02-28T01:37:17;4.53;;;3.03;;
10596;SDS011;5346;48.766;8.674;2023-02-28T01:39:51;5.80;;;3.80;;
10596;SDS011;5346;48.766;8.674;2023-02-28T01:42:18;4.10;;;3.43;;
10596;SDS011;5346;48.766;8.674;2023-02-28T01:48:04;4.93;;;3.57;;
10596;SDS011;5346;48.766;8.674;2023-02-28T01:50:43;6.03;;;3.50;;
10596;SDS011;5346;48.766;8.674;2023-02-28T01:53:21;7.83;;;3.70;;
10596;SDS011;5346;48.766;8.674;2023-02-28T01:56:04;6.03;;;3.40;;
10596;SDS011;5346;48.766;8.674;2023-02-28T01:58:35;6.23;;;3.83;;
10596;SDS011;5346;48.766;8.674;2023-02-28T02:01:09;4.87;;;3.83;;
10596;SDS011;5346;48.766;8.674;2023-02-28T02:03:55;10.63;;;4.40;;
10596;SDS011;5346;48.766;8.674;2023-02-28T02:06:51;6.27;;;4.60;;
10596;SDS011;5346;48.766;8.674;2023-02-28T02:09:26;6.67;;;3.63;;
10596;SDS011;5346;48.766;8.674;2023-02-28T02:11:59;7.33;;;4.57;;
10596;SDS011;5346;48.766;8.674;2023-02-28T02:15:30;10.03;;;4.60;;
10596;SDS011;5346;48.766;8.674;2023-02-28T02:25:09;5.60;;;4.07;;
10596;SDS011;5346;48.766;8.674;2023-02-28T02:34:40;6.03;;;3.93;;
10596;SDS011;5346;48.766;8.674;2023-02-28T02:41:02;7.73;;;4.77;;
10596;SDS011;5346;48.766;8.674;2023-02-28T02:46:59;7.10;;;4.80;;
10596;SDS011;5346;48.766;8.674;2023-02-28T02:50:01;11.03;;;5.50;;
10596;SDS011;5346;48.766;8.674;2023-02-28T02:52:42;6.87;;;4.43;;
10596;SDS011;5346;48.766;8.674;2023-02-28T02:55:22;7.87;;;5.13;;
10596;SDS011;5346;48.766;8.674;2023-02-28T02:57:59;7.00;;;5.10;;
10596;SDS011;5346;48.766;8.674;2023-02-28T03:00:35;7.30;;;5.13;;
10596;SDS011;5346;48.766;8.674;2023-02-28T03:03:16;9.40;;;5.60;;
10596;SDS011;5346;48.766;8.674;2023-02-28T03:05:56;7.43;;;4.90;;
10596;SDS011;5346;48.766;8.674;2023-02-28T03:08:35;9.20;;;5.30;;
10596;SDS011;5346;48.766;8.674;2023-02-28T03:11:05;7.20;;;5.13;;
10596;SDS011;5346;48.766;8.674;2023-02-28T03:16:43;10.33;;;6.23;;
10596;SDS011;5346;48.766;8.674;2023-02-28T03:19:37;9.30;;;5.60;;
10596;SDS011;5346;48.766;8.674;2023-02-28T03:25:56;8.33;;;5.20;;
10596;SDS011;5346;48.766;8.674;2023-02-28T03:28:53;8.83;;;5.77;;
10596;SDS011;5346;48.766;8.674;2023-02-28T03:31:37;9.80;;;5.83;;
10596;SDS011;5346;48.766;8.674;2023-02-28T03:34:25;11.40;;;7.30;;
10596;SDS011;5346;48.766;8.674;2023-02-28T03:37:11;9.37;;;6.73;;
10596;SDS011;5346;48.766;8.674;2023-02-28T03:39:53;9.70;;;6.07;;
10596;SDS011;5346;48.766;8.674;2023-02-28T03:42:36;7.87;;;6.10;;
10596;SDS011;5346;48.766;8.674;2023-02-28T03:45:11;10.10;;;6.87;;
10596;SDS011;5346;48.766;8.674;2023-02-28T03:47:54;10.13;;;6.90;;
10596;SDS011;5346;48.766;8.674;2023-02-28T03:50:38;9.73;;;7.10;;
10596;SDS011;5346;48.766;8.674;2023-02-28T03:53:19;11.80;;;7.07;;
10596;SDS011;5346;48.766;8.674;2023-02-28T03:55:56;10.13;;;7.03;;
10596;SDS011;5346;48.766;8.674;2023-02-28T03:58:42;10.57;;;7.30;;
10596;SDS011;5346;48.766;8.674;2023-02-28T04:01:29;12.03;;;6.33;;
10596;SDS011;5346;48.766;8.674;2023-02-28T04:04:14;9.27;;;6.83;;
10596;SDS011;5346;48.766;8.674;2023-02-28T04:06:44;10.33;;;7.13;;
10596;SDS011;5346;48.766;8.674;2023-02-28T04:09:17;9.60;;;6.63;;
10596;SDS011;5346;48.766;8.674;2023-02-28T04:11:45;10.10;;;7.00;;
10596;SDS011;5346;48.766;8.674;2023-02-28T04:14:24;10.93;;;7.43;;
10596;SDS011;5346;48.766;8.674;2023-02-28T04:16:51;11.73;;;7.47;;
10596;SDS011;5346;48.766;8.674;2023-02-28T04:19:25;10.80;;;7.70;;
10596;SDS011;5346;48.766;8.674;2023-02-28T04:21:59;10.00;;;7.20;;
10596;SDS011;5346;48.766;8.674;2023-02-28T04:24:33;10.13;;;7.37;;
10596;SDS011;5346;48.766;8.674;2023-02-28T04:27:07;11.00;;;7.77;;
10596;SDS011;5346;48.766;8.674;2023-02-28T04:29:42;10.97;;;7.87;;
10596;SDS011;5346;48.766;8.674;2023-02-28T04:32:17;10.60;;;7.57;;
10596;SDS011;5346;48.766;8.674;2023-02-28T04:34:44;10.23;;;7.37;;
10596;SDS011;5346;48.766;8.674;2023-02-28T04:37:18;12.53;;;7.07;;
10596;SDS011;5346;48.766;8.674;2023-02-28T04:39:55;12.53;;;7.53;;
10596;SDS011;5346;48.766;8.674;2023-02-28T04:42:28;12.77;;;7.63;;
10596;SDS011;5346;48.766;8.674;2023-02-28T04:45:07;13.37;;;8.10;;
10596;SDS011;5346;48.766;8.674;2023-02-28T04:47:48;12.63;;;7.83;;
10596;SDS011;5346;48.766;8.674;2023-02-28T04:50:28;11.43;;;7.37;;
10596;SDS011;5346;48.766;8.674;2023-02-28T04:52:56;12.83;;;8.50;;
10596;SDS011;5346;48.766;8.674;2023-02-28T04:55:29;13.90;;;8.43;;
10596;SDS011;5346;48.766;8.674;2023-02-28T04:58:07;19.17;;;9.97;;
10596;SDS011;5346;48.766;8.674;2023-02-28T05:00:40;12.63;;;8.07;;
10596;SDS011;5346;48.766;8.674;2023-02-28T05:03:14;11.73;;;7.70;;
10596;SDS011;5346;48.766;8.674;2023-02-28T05:05:48;12.37;;;8.10;;
10596;SDS011;5346;48.766;8.674;2023-02-28T05:08:23;14.20;;;7.80;;
10596;SDS011;5346;48.766;8.674;2023-02-28T05:10:57;12.57;;;8.50;;
10596;SDS011;5346;48.766;8.674;2023-02-28T05:13:27;12.43;;;8.30;;
10596;SDS011;5346;48.766;8.674;2023-02-28T05:16:01;12.20;;;8.63;;
10596;SDS011;5346;48.766;8.674;2023-02-28T05:18:34;12.00;;;8.40;;
10596;SDS011;5346;48.766;8.674;2023-02-28T05:21:01;10.50;;;7.93;;
10596;SDS011;5346;48.766;8.674;2023-02-28T05:23:35;11.53;;;8.20;;
10596;SDS011;5346;48.766;8.674;2023-02-28T05:26:02;13.03;;;8.27;;
10596;SDS011;5346;48.766;8.674;2023-02-28T05:28:38;12.50;;;8.30;;
10596;SDS011;5346;48.766;8.674;2023-02-28T05:31:13;12.10;;;8.13;;
10596;SDS011;5346;48.766;8.674;2023-02-28T05:33:48;15.83;;;8.77;;
10596;SDS011;5346;48.766;8.674;2023-02-28T05:36:22;13.87;;;8.93;;
10596;SDS011;5346;48.766;8.674;2023-02-28T05:38:56;13.07;;;8.20;;
10596;SDS011;5346;48.766;8.674;2023-02-28T05:41:29;13.33;;;8.80;;
10596;SDS011;5346;48.766;8.674;2023-02-28T05:43:57;13.53;;;9.63;;
10596;SDS011;5346;48.766;8.674;2023-02-28T05:46:32;13.93;;;8.97;;
10596;SDS011;5346;48.766;8.674;2023-02-28T05:49:06;13.53;;;8.93;;
10596;SDS011;5346;48.766;8.674;2023-02-28T05:51:36;16.17;;;9.70;;
10596;SDS011;5346;48.766;8.674;2023-02-28T05:54:12;14.93;;;8.90;;
10596;SDS011;5346;48.766;8.674;2023-02-28T05:56:46;12.73;;;8.53;;
10596;SDS011;5346;48.766;8.674;2023-02-28T05:59:14;12.37;;;8.43;;
10596;SDS011;5346;48.766;8.674;2023-02-28T06:01:47;10.80;;;8.37;;
10596;SDS011;5346;48.766;8.674;2023-02-28T06:04:21;13.47;;;9.10;;
10596;SDS011;5346;48.766;8.674;2023-02-28T06:06:57;17.73;;;9.27;;
10596;SDS011;5346;48.766;8.674;2023-02-28T06:09:32;15.67;;;9.40;;
10596;SDS011;5346;48.766;8.674;2023-02-28T06:12:00;14.50;;;9.43;;
10596;SDS011;5346;48.766;8.674;2023-02-28T06:14:38;16.83;;;9.63;;
10596;SDS011;5346;48.766;8.674;2023-02-28T06:17:05;13.17;;;9.23;;
10596;SDS011;5346;48.766;8.674;2023-02-28T06:19:39;19.33;;;9.90;;
10596;SDS011;5346;48.766;8.674;2023-02-28T06:22:07;17.00;;;9.10;;
10596;SDS011;5346;48.766;8.674;2023-02-28T06:24:41;14.27;;;9.20;;
10596;SDS011;5346;48.766;8.674;2023-02-28T06:27:15;14.07;;;8.80;;
10596;SDS011;5346;48.766;8.674;2023-02-28T06:29:53;16.60;;;9.30;;
10596;SDS011;5346;48.766;8.674;2023-02-28T06:32:29;16.73;;;9.63;;
10596;SDS011;5346;48.766;8.674;2023-02-28T06:35:02;14.57;;;9.13;;
10596;SDS011;5346;48.766;8.674;2023-02-28T06:37:36;14.97;;;9.07;;
10596;SDS011;5346;48.766;8.674;2023-02-28T06:40:10;19.20;;;10.00;;
10596;SDS011;5346;48.766;8.674;2023-02-28T06:42:39;14.83;;;8.57;;
10596;SDS011;5346;48.766;8.674;2023-02-28T06:45:12;15.20;;;9.13;;
10596;SDS011;5346;48.766;8.674;2023-02-28T06:47:53;15.40;;;9.60;;
10596;SDS011;5346;48.766;8.674;2023-02-28T06:50:27;13.47;;;8.73;;
10596;SDS011;5346;48.766;8.674;2023-02-28T06:53:02;14.23;;;9.37;;
10596;SDS011;5346;48.766;8.674;2023-02-28T06:55:37;15.67;;;9.30;;
10596;SDS011;5346;48.766;8.674;2023-02-28T06:58:05;13.23;;;9.50;;
10596;SDS011;5346;48.766;8.674;2023-02-28T07:00:50;13.97;;;9.10;;
10596;SDS011;5346;48.766;8.674;2023-02-28T07:03:19;12.67;;;8.33;;
10596;SDS011;5346;48.766;8.674;2023-02-28T07:05:52;13.03;;;9.00;;
10596;SDS011;5346;48.766;8.674;2023-02-28T07:08:26;18.37;;;9.03;;
10596;SDS011;5346;48.766;8.674;2023-02-28T07:11:01;16.07;;;8.90;;
10596;SDS011;5346;48.766;8.674;2023-02-28T07:13:29;15.93;;;8.93;;
10596;SDS011;5346;48.766;8.674;2023-02-28T07:16:03;14.97;;;9.00;;
10596;SDS011;5346;48.766;8.674;2023-02-28T07:18:41;13.73;;;8.57;;
10596;SDS011;5346;48.766;8.674;2023-02-28T07:21:15;13.43;;;8.50;;
10596;SDS011;5346;48.766;8.674;2023-02-28T07:23:48;17.13;;;8.87;;
10596;SDS011;5346;48.766;8.674;2023-02-28T07:26:23;13.40;;;9.03;;
10596;SDS011;5346;48.766;8.674;2023-02-28T07:28:57;16.37;;;9.20;;
10596;SDS011;5346;48.766;8.674;2023-02-28T07:31:25;14.30;;;8.50;;
10596;SDS011;5346;48.766;8.674;2023-02-28T07:33:59;15.63;;;9.87;;
10596;SDS011;5346;48.766;8.674;2023-02-28T07:36:26;12.87;;;8.93;;
10596;SDS011;5346;48.766;8.674;2023-02-28T07:38:59;14.17;;;9.47;;
10596;SDS011;5346;48.766;8.674;2023-02-28T07:41:27;14.63;;;9.17;;
10596;SDS011;5346;48.766;8.674;2023-02-28T07:44:03;17.40;;;9.30;;
10596;SDS011;5346;48.766;8.674;2023-02-28T07:46:30;12.73;;;9.23;;
10596;SDS011;5346;48.766;8.674;2023-02-28T07:49:12;17.17;;;9.40;;
10596;SDS011;5346;48.766;8.674;2023-02-28T07:51:39;14.70;;;9.40;;
10596;SDS011;5346;48.766;8.674;2023-02-28T07:54:06;14.40;;;9.13;;
10596;SDS011;5346;48.766;8.674;2023-02-28T07:56:40;12.33;;;8.73;;
10596;SDS011;5346;48.766;8.674;2023-02-28T07:59:08;14.20;;;9.33;;
10596;SDS011;5346;48.766;8.674;2023-02-28T08:01:41;12.70;;;8.73;;
10596;SDS011;5346;48.766;8.674;2023-02-28T08:04:11;12.60;;;9.07;;
10596;SDS011;5346;48.766;8.674;2023-02-28T08:06:46;12.80;;;9.33;;
10596;SDS011;5346;48.766;8.674;2023-02-28T08:09:14;13.33;;;8.87;;
10596;SDS011;5346;48.766;8.674;2023-02-28T08:11:41;11.47;;;8.37;;
10596;SDS011;5346;48.766;8.674;2023-02-28T08:14:15;13.43;;;8.77;;
10596;SDS011;5346;48.766;8.674;2023-02-28T08:16:50;15.03;;;9.07;;
10596;SDS011;5346;48.766;8.674;2023-02-28T08:19:17;12.57;;;8.43;;
10596;SDS011;5346;48.766;8.674;2023-02-28T08:21:51;11.87;;;7.73;;
10596;SDS011;5346;48.766;8.674;2023-02-28T08:24:24;16.50;;;9.30;;
10596;SDS011;5346;48.766;8.674;2023-02-28T08:26:58;13.90;;;8.37;;
10596;SDS011;5346;48.766;8.674;2023-02-28T08:29:26;11.20;;;8.13;;
10596;SDS011;5346;48.766;8.674;2023-02-28T08:31:59;12.23;;;8.80;;
10596;SDS011;5346;48.766;8.674;2023-02-28T08:34:45;12.57;;;8.23;;
10596;SDS011;5346;48.766;8.674;2023-02-28T08:37:13;14.60;;;9.13;;
10596;SDS011;5346;48.766;8.674;2023-02-28T08:39:47;14.83;;;9.10;;
10596;SDS011;5346;48.766;8.674;2023-02-28T08:42:15;14.97;;;9.10;;
10596;SDS011;5346;48.766;8.674;2023-02-28T08:44:55;16.57;;;8.63;;
10596;SDS011;5346;48.766;8.674;2023-02-28T08:47:37;15.87;;;10.07;;
10596;SDS011;5346;48.766;8.674;2023-02-28T08:50:10;22.53;;;12.40;;
10596;SDS011;5346;48.766;8.674;2023-02-28T08:52:44;21.30;;;13.53;;
10596;SDS011;5346;48.766;8.674;2023-02-28T08:55:18;13.63;;;9.40;;
10596;SDS011;5346;48.766;8.674;2023-02-28T08:57:52;23.03;;;13.00;;
10596;SDS011;5346;48.766;8.674;2023-02-28T09:00:27;16.03;;;10.90;;
10596;SDS011;5346;48.766;8.674;2023-02-28T09:02:55;15.60;;;10.83;;
10596;SDS011;5346;48.766;8.674;2023-02-28T09:05:29;15.53;;;10.70;;
10596;SDS011;5346;48.766;8.674;2023-02-28T09:07:56;11.37;;;8.70;;
10596;SDS011;5346;48.766;8.674;2023-02-28T09:10:30;15.13;;;9.20;;
10596;SDS011;5346;48.766;8.674;2023-02-28T09:12:58;16.17;;;10.10;;
10596;SDS011;5346;48.766;8.674;2023-02-28T09:15:32;14.17;;;8.57;;
10596;SDS011;5346;48.766;8.674;2023-02-28T09:18:05;12.43;;;8.43;;
10596;SDS011;5346;48.766;8.674;2023-02-28T09:20:40;12.17;;;9.07;;
10596;SDS011;5346;48.766;8.674;2023-02-28T09:23:09;15.80;;;9.20;;
10596;SDS011;5346;48.766;8.674;2023-02-28T09:25:48;13.70;;;8.87;;
10596;SDS011;5346;48.766;8.674;2023-02-28T09:28:33;14.47;;;9.20;;
10596;SDS011;5346;48.766;8.674;2023-02-28T09:31:01;16.50;;;9.47;;
10596;SDS011;5346;48.766;8.674;2023-02-28T09:33:38;13.57;;;9.80;;
10596;SDS011;5346;48.766;8.674;2023-02-28T09:36:13;13.03;;;9.27;;
10596;SDS011;5346;48.766;8.674;2023-02-28T09:38:48;21.43;;;14.60;;
10596;SDS011;5346;48.766;8.674;2023-02-28T09:41:24;31.93;;;19.13;;
10596;SDS011;5346;48.766;8.674;2023-02-28T09:44:04;29.80;;;18.00;;
10596;SDS011;5346;48.766;8.674;2023-02-28T09:46:45;15.50;;;9.67;;
10596;SDS011;5346;48.766;8.674;2023-02-28T09:49:37;19.97;;;12.47;;
10596;SDS011;5346;48.766;8.674;2023-02-28T09:52:18;27.37;;;15.53;;
10596;SDS011;5346;48.766;8.674;2023-02-28T09:55:00;23.47;;;13.43;;
10596;SDS011;5346;48.766;8.674;2023-02-28T09:57:54;17.60;;;10.73;;
10596;SDS011;5346;48.766;8.674;2023-02-28T10:00:34;20.87;;;14.07;;
10596;SDS011;5346;48.766;8.674;2023-02-28T10:06:18;11.47;;;8.67;;
10596;SDS011;5346;48.766;8.674;2023-02-28T10:08:58;15.87;;;10.20;;
10596;SDS011;5346;48.766;8.674;2023-02-28T10:11:40;14.60;;;9.73;;
10596;SDS011;5346;48.766;8.674;2023-02-28T10:14:21;14.60;;;9.43;;
10596;SDS011;5346;48.766;8.674;2023-02-28T10:17:04;13.93;;;9.43;;
10596;SDS011;5346;48.766;8.674;2023-02-28T10:22:49;14.97;;;9.27;;
10596;SDS011;5346;48.766;8.674;2023-02-28T10:25:30;13.53;;;9.40;;
10596;SDS011;5346;48.766;8.674;2023-02-28T10:28:08;14.77;;;9.40;;
10596;SDS011;5346;48.766;8.674;2023-02-28T10:30:50;15.67;;;9.07;;
10596;SDS011;5346;48.766;8.674;2023-02-28T10:33:32;13.17;;;8.57;;
10596;SDS011;5346;48.766;8.674;2023-02-28T10:36:08;14.20;;;9.67;;
10596;SDS011;5346;48.766;8.674;2023-02-28T10:38:50;11.90;;;8.70;;
10596;SDS011;5346;48.766;8.674;2023-02-28T10:41:30;13.83;;;9.73;;
10596;SDS011;5346;48.766;8.674;2023-02-28T10:44:20;11.60;;;9.00;;
10596;SDS011;5346;48.766;8.674;2023-02-28T10:46:56;13.70;;;9.40;;
10596;SDS011;5346;48.766;8.674;2023-02-28T10:49:37;18.90;;;11.53;;
10596;SDS011;5346;48.766;8.674;2023-02-28T10:52:37;13.83;;;9.97;;
10596;SDS011;5346;48.766;8.674;2023-02-28T10:55:21;14.47;;;10.63;;
10596;SDS011;5346;48.766;8.674;2023-02-28T10:57:57;14.03;;;9.57;;
10596;SDS011;5346;48.766;8.674;2023-02-28T11:00:32;13.30;;;9.93;;
10596;SDS011;5346;48.766;8.674;2023-02-28T11:03:22;13.93;;;9.77;;
10596;SDS011;5346;48.766;8.674;2023-02-28T11:06:07;11.50;;;9.13;;
10596;SDS011;5346;48.766;8.674;2023-02-28T11:08:52;14.43;;;9.63;;
10596;SDS011;5346;48.766;8.674;2023-02-28T11:11:28;13.23;;;8.67;;
10596;SDS011;5346;48.766;8.674;2023-02-28T11:14:19;13.37;;;8.70;;
10596;SDS011;5346;48.766;8.674;2023-02-28T11:17:11;13.17;;;9.33;;
10596;SDS011;5346;48.766;8.674;2023-02-28T11:19:48;14.53;;;9.33;;
10596;SDS011;5346;48.766;8.674;2023-02-28T11:22:27;12.57;;;9.53;;
10596;SDS011;5346;48.766;8.674;2023-02-28T11:25:00;13.10;;;8.67;;
10596;SDS011;5346;48.766;8.674;2023-02-28T11:27:52;12.13;;;8.83;;
10596;SDS011;5346;48.766;8.674;2023-02-28T11:30:24;13.33;;;9.17;;
10596;SDS011;5346;48.766;8.674;2023-02-28T11:36:14;15.03;;;10.03;;
10596;SDS011;5346;48.766;8.674;2023-02-28T11:39:04;12.07;;;8.70;;
10596;SDS011;5346;48.766;8.674;2023-02-28T11:48:11;12.87;;;9.23;;
10596;SDS011;5346;48.766;8.674;2023-02-28T11:54:35;11.43;;;8.70;;
10596;SDS011;5346;48.766;8.674;2023-02-28T11:57:21;11.80;;;8.87;;
10596;SDS011;5346;48.766;8.674;2023-02-28T12:03:39;13.20;;;9.80;;
10596;SDS011;5346;48.766;8.674;2023-02-28T12:10:17;10.97;;;7.70;;
10596;SDS011;5346;48.766;8.674;2023-02-28T12:27:03;12.03;;;8.53;;
10596;SDS011;5346;48.766;8.674;2023-02-28T12:30:22;11.83;;;8.77;;
10596;SDS011;5346;48.766;8.674;2023-02-28T12:32:44;11.30;;;8.67;;
10596;SDS011;5346;48.766;8.674;2023-02-28T12:35:24;14.03;;;8.63;;
10596;SDS011;5346;48.766;8.674;2023-02-28T12:40:56;12.30;;;8.43;;
10596;SDS011;5346;48.766;8.674;2023-02-28T12:43:42;10.67;;;8.23;;
10596;SDS011;5346;48.766;8.674;2023-02-28T12:46:17;10.60;;;7.73;;
10596;SDS011;5346;48.766;8.674;2023-02-28T12:49:27;11.83;;;8.40;;
10596;SDS011;5346;48.766;8.674;2023-02-28T12:52:09;10.87;;;7.83;;
10596;SDS011;5346;48.766;8.674;2023-02-28T12:57:42;11.03;;;8.00;;
10596;SDS011;5346;48.766;8.674;2023-02-28T13:00:48;11.37;;;7.90;;
10596;SDS011;5346;48.766;8.674;2023-02-28T13:06:53;12.27;;;8.77;;
10596;SDS011;5346;48.766;8.674;2023-02-28T13:09:32;12.33;;;8.60;;
10596;SDS011;5346;48.766;8.674;2023-02-28T13:11:59;12.50;;;8.70;;
10596;SDS011;5346;48.766;8.674;2023-02-28T13:22:40;13.32;;;10.27;;
10596;SDS011;5346;48.766;8.674;2023-02-28T13:27:49;13.88;;;8.10;;
10596;SDS011;5346;48.766;8.674;2023-02-28T13:33:27;9.65;;;8.20;;
10596;SDS011;5346;48.766;8.674;2023-02-28T13:36:07;10.68;;;8.57;;
10596;SDS011;5346;48.766;8.674;2023-02-28T13:38:52;10.20;;;7.73;;
10596;SDS011;5346;48.766;8.674;2023-02-28T13:44:20;15.60;;;9.40;;
10596;SDS011;5346;48.766;8.674;2023-02-28T13:49:41;14.30;;;9.03;;
10596;SDS011;5346;48.766;8.674;2023-02-28T13:52:17;13.73;;;10.57;;
10596;SDS011;5346;48.766;8.674;2023-02-28T14:01:12;11.43;;;9.38;;
10596;SDS011;5346;48.766;8.674;2023-02-28T14:07:24;10.63;;;7.93;;
10596;SDS011;5346;48.766;8.674;2023-02-28T14:10:20;12.82;;;8.00;;
10596;SDS011;5346;48.766;8.674;2023-02-28T14:12:59;12.40;;;10.13;;
10596;SDS011;5346;48.766;8.674;2023-02-28T14:15:41;10.00;;;7.38;;
10596;SDS011;5346;48.766;8.674;2023-02-28T14:18:55;15.38;;;9.77;;
10596;SDS011;5346;48.766;8.674;2023-02-28T14:21:32;10.45;;;8.02;;
10596;SDS011;5346;48.766;8.674;2023-02-28T14:33:20;14.33;;;10.07;;
10596;SDS011;5346;48.766;8.674;2023-02-28T14:39:13;10.10;;;8.17;;
10596;SDS011;5346;48.766;8.674;2023-02-28T14:41:59;9.03;;;7.47;;
10596;SDS011;5346;48.766;8.674;2023-02-28T14:44:31;9.13;;;7.93;;
10596;SDS011;5346;48.766;8.674;2023-02-28T14:47:11;10.77;;;9.07;;
10596;SDS011;5346;48.766;8.674;2023-02-28T14:49:56;11.32;;;8.68;;
10596;SDS011;5346;48.766;8.674;2023-02-28T14:52:32;10.73;;;7.63;;
10596;SDS011;5346;48.766;8.674;2023-02-28T14:55:00;11.40;;;7.40;;
10596;SDS011;5346;48.766;8.674;2023-02-28T14:57:41;9.05;;;7.15;;
10596;SDS011;5346;48.766;8.674;2023-02-28T15:03:21;8.77;;;7.15;;
10596;SDS011;5346;48.766;8.674;2023-02-28T15:09:07;11.23;;;7.75;;
10596;SDS011;5346;48.766;8.674;2023-02-28T15:11:45;10.02;;;7.43;;
10596;SDS011;5346;48.766;8.674;2023-02-28T15:14:23;9.70;;;8.00;;
10596;SDS011;5346;48.766;8.674;2023-02-28T15:16:56;9.80;;;8.50;;
10596;SDS011;5346;48.766;8.674;2023-02-28T15:19:39;9.70;;;8.20;;
10596;SDS011;5346;48.766;8.674;2023-02-28T15:22:15;10.37;;;7.70;;
10596;SDS011;5346;48.766;8.674;2023-02-28T15:24:58;10.30;;;8.47;;
10596;SDS011;5346;48.766;8.674;2023-02-28T15:27:29;12.73;;;8.37;;
10596;SDS011;5346;48.766;8.674;2023-02-28T15:30:08;12.17;;;8.70;;
10596;SDS011;5346;48.766;8.674;2023-02-28T15:36:15;12.60;;;8.30;;
10596;SDS011;5346;48.766;8.674;2023-02-28T15:38:54;12.50;;;8.60;;
10596;SDS011;5346;48.766;8.674;2023-02-28T15:41:36;13.17;;;9.27;;
10596;SDS011;5346;48.766;8.674;2023-02-28T15:50:01;10.60;;;8.70;;
10596;SDS011;5346;48.766;8.674;2023-02-28T15:52:45;10.07;;;8.20;;
10596;SDS011;5346;48.766;8.674;2023-02-28T15:55:28;17.23;;;10.97;;
10596;SDS011;5346;48.766;8.674;2023-02-28T15:57:57;13.57;;;8.87;;
10596;SDS011;5346;48.766;8.674;2023-02-28T16:00:35;14.87;;;8.97;;
10596;SDS011;5346;48.766;8.674;2023-02-28T16:03:25;11.93;;;9.07;;
10596;SDS011;5346;48.766;8.674;2023-02-28T16:06:08;12.43;;;8.90;;
10596;SDS011;5346;48.766;8.674;2023-02-28T16:08:59;15.60;;;9.20;;
10596;SDS011;5346;48.766;8.674;2023-02-28T16:11:33;13.23;;;8.63;;
10596;SDS011;5346;48.766;8.674;2023-02-28T16:14:13;15.20;;;9.07;;
10596;SDS011;5346;48.766;8.674;2023-02-28T16:16:53;13.37;;;9.90;;
10596;SDS011;5346;48.766;8.674;2023-02-28T16:19:30;13.40;;;9.47;;
10596;SDS011;5346;48.766;8.674;2023-02-28T16:22:00;12.63;;;9.47;;
10596;SDS011;5346;48.766;8.674;2023-02-28T16:24:27;17.67;;;10.33;;
10596;SDS011;5346;48.766;8.674;2023-02-28T16:27:02;13.60;;;10.73;;
10596;SDS011;5346;48.766;8.674;2023-02-28T16:29:30;15.33;;;9.83;;
10596;SDS011;5346;48.766;8.674;2023-02-28T16:32:12;15.07;;;9.67;;
10596;SDS011;5346;48.766;8.674;2023-02-28T16:34:49;15.57;;;10.77;;
10596;SDS011;5346;48.766;8.674;2023-02-28T16:37:22;13.87;;;10.17;;
10596;SDS011;5346;48.766;8.674;2023-02-28T16:39:56;15.37;;;11.13;;
10596;SDS011;5346;48.766;8.674;2023-02-28T16:42:31;15.50;;;11.53;;
10596;SDS011;5346;48.766;8.674;2023-02-28T16:44:58;17.33;;;11.83;;
10596;SDS011;5346;48.766;8.674;2023-02-28T16:47:32;14.70;;;10.40;;
10596;SDS011;5346;48.766;8.674;2023-02-28T16:50:17;14.37;;;10.57;;
10596;SDS011;5346;48.766;8.674;2023-02-28T16:52:54;13.37;;;10.13;;
10596;SDS011;5346;48.766;8.674;2023-02-28T16:55:22;17.43;;;11.23;;
10596;SDS011;5346;48.766;8.674;2023-02-28T16:58:02;14.90;;;10.97;;
10596;SDS011;5346;48.766;8.674;2023-02-28T17:00:30;18.63;;;12.03;;
10596;SDS011;5346;48.766;8.674;2023-02-28T17:03:08;15.77;;;10.87;;
10596;SDS011;5346;48.766;8.674;2023-02-28T17:05:58;14.50;;;11.70;;
10596;SDS011;5346;48.766;8.674;2023-02-28T17:08:31;19.17;;;12.07;;
10596;SDS011;5346;48.766;8.674;2023-02-28T17:10:59;21.07;;;12.90;;
10596;SDS011;5346;48.766;8.674;2023-02-28T17:13:36;18.43;;;12.47;;
10596;SDS011;5346;48.766;8.674;2023-02-28T17:16:14;16.63;;;10.93;;
10596;SDS011;5346;48.766;8.674;2023-02-28T17:19:00;16.10;;;11.20;;
10596;SDS011;5346;48.766;8.674;2023-02-28T17:21:30;17.70;;;11.40;;
10596;SDS011;5346;48.766;8.674;2023-02-28T17:24:04;15.20;;;10.60;;
10596;SDS011;5346;48.766;8.674;2023-02-28T17:26:44;17.00;;;11.53;;
10596;SDS011;5346;48.766;8.674;2023-02-28T17:29:19;15.80;;;11.27;;
10596;SDS011;5346;48.766;8.674;2023-02-28T17:31:54;16.03;;;11.47;;
10596;SDS011;5346;48.766;8.674;2023-02-28T17:34:25;17.17;;;11.27;;
10596;SDS011;5346;48.766;8.674;2023-02-28T17:37:00;17.37;;;11.83;;
10596;SDS011;5346;48.766;8.674;2023-02-28T17:39:29;16.40;;;11.50;;
10596;SDS011;5346;48.766;8.674;2023-02-28T17:42:03;19.20;;;11.70;;
10596;SDS011;5346;48.766;8.674;2023-02-28T17:44:30;18.17;;;11.57;;
10596;SDS011;5346;48.766;8.674;2023-02-28T17:47:12;18.20;;;11.53;;
10596;SDS011;5346;48.766;8.674;2023-02-28T17:49:39;16.07;;;10.87;;
10596;SDS011;5346;48.766;8.674;2023-02-28T17:52:12;15.73;;;10.53;;
10596;SDS011;5346;48.766;8.674;2023-02-28T17:54:39;16.63;;;11.20;;
10596;SDS011;5346;48.766;8.674;2023-02-28T17:57:16;19.10;;;11.80;;
10596;SDS011;5346;48.766;8.674;2023-02-28T17:59:45;18.13;;;11.40;;
10596;SDS011;5346;48.766;8.674;2023-02-28T18:02:20;17.13;;;11.77;;